Time;durP1;ratioP1;P1;durP2;ratioP2;P2;SDS_P1;SDS_P2;PMS_P1;PMS_P2;Temp;Humidity;BMP_temperature;BMP_pressure;BME280_temperature;BME280_humidity;BME280_pressure;Samples;Min_cycle;Max_cycle;Signal;HPM_P1;HPM_P2
2022/05/08 00:01:37;;;;;;;12.52;6.40;;;;;;;13.94;67.06;102587.91;5028444;28;20029;-68
2022/05/08 00:04:03;;;;;;;11.77;6.10;;;;;;;13.89;67.11;102584.84;5026413;28;20544;-68
2022/05/08 00:06:28;;;;;;;13.70;7.05;;;;;;;13.87;67.30;102582.28;5026400;28;20108;-67
2022/05/08 00:08:54;;;;;;;14.68;6.78;;;;;;;13.85;67.44;102589.63;5027707;28;20037;-67
2022/05/08 00:11:19;;;;;;;9.95;6.47;;;;;;;13.74;67.16;102584.50;5023153;28;20133;-69
2022/05/08 00:13:45;;;;;;;12.93;7.35;;;;;;;13.75;66.82;102591.50;5028452;28;20034;-68
2022/05/08 00:16:11;;;;;;;13.88;6.63;;;;;;;13.79;67.99;102589.38;5024223;28;20017;-68
2022/05/08 00:18:36;;;;;;;12.55;6.80;;;;;;;13.79;68.04;102589.38;5026873;28;20055;-67
2022/05/08 00:21:02;;;;;;;12.13;6.88;;;;;;;13.77;67.90;102588.69;5026787;28;20079;-68
2022/05/08 00:23:27;;;;;;;11.55;6.93;;;;;;;13.74;67.95;102584.50;5023769;28;20052;-68
2022/05/08 00:25:52;;;;;;;13.30;6.80;;;;;;;13.69;67.92;102586.78;5027608;28;20128;-68
2022/05/08 00:28:17;;;;;;;13.77;6.78;;;;;;;13.69;67.97;102589.44;5027796;28;20025;-67
2022/05/08 00:30:43;;;;;;;13.90;6.72;;;;;;;13.68;68.16;102587.75;5023116;28;20033;-68
2022/05/08 00:33:08;;;;;;;14.98;7.07;;;;;;;13.66;68.23;102589.75;5019553;28;20552;-68
2022/05/08 00:35:33;;;;;;;12.27;7.15;;;;;;;13.63;68.41;102592.72;5024703;28;20029;-67
2022/05/08 00:37:59;;;;;;;13.32;7.30;;;;;;;13.64;68.06;102594.38;5025073;28;20029;-68
2022/05/08 00:40:24;;;;;;;12.85;7.30;;;;;;;13.58;68.20;102592.28;5024846;28;20041;-68
2022/05/08 00:42:49;;;;;;;12.30;7.30;;;;;;;13.60;68.59;102591.19;5025859;28;20059;-68
2022/05/08 00:45:14;;;;;;;13.23;7.30;;;;;;;13.60;68.20;102593.00;5023147;28;20061;-67
2022/05/08 00:47:40;;;;;;;13.82;7.03;;;;;;;13.59;68.68;102591.31;5023863;28;20033;-68
2022/05/08 00:50:06;;;;;;;10.43;7.65;;;;;;;13.50;68.36;102590.34;5022315;28;20658;-68
2022/05/08 00:52:34;;;;;;;11.10;6.90;;;;;;;13.47;68.10;102597.81;5022585;28;20585;-67
2022/05/08 00:55:00;;;;;;;15.30;7.90;;;;;;;13.40;68.44;102594.91;5021186;28;20910;-67
2022/05/08 00:57:26;;;;;;;12.80;7.60;;;;;;;13.38;68.51;102593.38;5023640;28;20037;-67
2022/05/08 00:59:51;;;;;;;13.90;7.55;;;;;;;13.38;68.42;102599.56;5025734;28;20282;-68
2022/05/08 01:02:17;;;;;;;16.77;7.60;;;;;;;13.35;68.55;102589.16;5024160;28;20673;-67
2022/05/08 01:04:42;;;;;;;12.90;8.02;;;;;;;13.29;68.29;102593.25;5024010;28;20041;-67
2022/05/08 01:07:08;;;;;;;14.63;7.53;;;;;;;13.23;68.50;102601.81;5023943;28;20025;-67
2022/05/08 01:09:33;;;;;;;15.68;7.65;;;;;;;13.22;68.35;102591.31;5022257;28;20613;-67
2022/05/08 01:11:58;;;;;;;12.85;7.72;;;;;;;13.18;68.63;102601.44;5023318;28;20029;-68
2022/05/08 01:14:23;;;;;;;13.40;7.60;;;;;;;13.17;68.27;102602.41;5020399;28;20509;-67
2022/05/08 01:16:49;;;;;;;14.18;8.13;;;;;;;13.12;68.44;102604.63;5022279;28;20029;-68
2022/05/08 01:19:15;;;;;;;12.75;8.32;;;;;;;13.04;68.54;102596.53;5023579;28;20033;-67
2022/05/08 01:21:42;;;;;;;14.25;8.65;;;;;;;13.00;68.44;102595.94;5022588;28;20044;-68
2022/05/08 01:24:14;;;;;;;16.77;8.27;;;;;;;12.98;68.95;102597.06;5020669;28;20409;-68
2022/05/08 01:26:39;;;;;;;16.83;7.90;;;;;;;12.97;68.61;102598.06;5022620;28;20025;-67
2022/05/08 01:29:04;;;;;;;12.60;8.18;;;;;;;13.00;68.61;102605.78;5023296;28;20040;-67
2022/05/08 01:31:31;;;;;;;15.82;8.38;;;;;;;12.94;68.87;102598.34;5022939;28;20056;-67
2022/05/08 01:33:57;;;;;;;14.35;8.85;;;;;;;12.89;69.32;102598.78;5022758;28;20029;-68
2022/05/08 01:36:22;;;;;;;15.98;8.43;;;;;;;12.83;68.91;102587.84;5020069;28;20552;-68
2022/05/08 01:38:48;;;;;;;15.35;8.68;;;;;;;12.89;69.14;102604.13;5023004;28;20041;-67
2022/05/08 01:41:14;;;;;;;14.95;8.95;;;;;;;12.88;69.15;102599.78;5022401;28;20031;-68
2022/05/08 01:43:41;;;;;;;16.13;8.88;;;;;;;12.89;69.54;102605.94;5019769;28;20033;-68
2022/05/08 01:46:07;;;;;;;19.88;9.05;;;;;;;12.82;68.96;102599.50;5025048;28;20021;-68
2022/05/08 01:48:33;;;;;;;18.58;9.00;;;;;;;12.70;68.90;102598.78;5021211;28;20025;-68
2022/05/08 01:51:00;;;;;;;13.05;9.02;;;;;;;12.70;69.09;102607.63;5020234;28;20037;-68
2022/05/08 01:53:34;;;;;;;18.08;9.25;;;;;;;12.62;69.03;102598.66;5021438;28;20140;-68
2022/05/08 01:56:02;;;;;;;15.77;9.40;;;;;;;12.61;68.61;102608.47;5020238;28;20029;-68
2022/05/08 01:58:29;;;;;;;25.33;10.48;;;;;;;12.55;68.94;102611.72;5021498;28;20048;-68
2022/05/08 02:00:56;;;;;;;15.80;9.07;;;;;;;12.52;68.72;102611.16;5023375;28;20406;-68
2022/05/08 02:03:23;;;;;;;18.35;9.77;;;;;;;12.48;68.89;102615.09;5022183;28;20955;-68
2022/05/08 02:05:48;;;;;;;16.42;9.48;;;;;;;12.41;68.59;102615.63;5016981;28;20033;-68
2022/05/08 02:08:14;;;;;;;17.90;9.60;;;;;;;12.46;69.11;102625.06;5018963;28;20025;-68
2022/05/08 02:10:39;;;;;;;21.20;9.88;;;;;;;12.42;69.23;102621.78;5022960;28;20091;-67
2022/05/08 02:13:07;;;;;;;17.08;9.70;;;;;;;12.39;69.28;102627.41;5021254;28;20080;-68
2022/05/08 02:15:32;;;;;;;17.45;9.40;;;;;;;12.36;69.40;102627.69;5019935;28;20034;-67
2022/05/08 02:18:03;;;;;;;18.67;10.10;;;;;;;12.34;69.09;102629.66;5019039;28;20508;-67
2022/05/08 02:20:29;;;;;;;17.73;9.48;;;;;;;12.30;69.19;102626.41;5022651;28;20030;-67
2022/05/08 02:22:54;;;;;;;15.88;9.63;;;;;;;12.30;69.32;102626.41;5022582;28;20040;-69
2022/05/08 02:25:20;;;;;;;18.30;9.00;;;;;;;12.28;69.50;102635.53;5021399;28;20040;-68
2022/05/08 02:27:49;;;;;;;20.33;9.38;;;;;;;12.27;69.05;102637.34;5020879;28;20079;-69
2022/05/08 02:30:16;;;;;;;17.90;9.13;;;;;;;12.27;68.95;102636.50;5025631;28;20022;-68
2022/05/08 02:32:41;;;;;;;17.52;9.15;;;;;;;12.23;69.17;102640.44;5024712;28;20714;-69
2022/05/08 02:35:09;;;;;;;15.00;8.65;;;;;;;12.20;69.15;102638.03;5016452;28;20037;-68
2022/05/08 02:37:35;;;;;;;17.85;8.82;;;;;;;12.22;69.18;102638.75;5020109;28;20103;-68
2022/05/08 02:40:01;;;;;;;16.42;8.35;;;;;;;12.18;68.90;102635.53;5019192;28;20142;-67
2022/05/08 02:42:27;;;;;;;25.67;9.38;;;;;;;12.14;68.63;102633.25;5023271;28;20746;-69
2022/05/08 02:44:52;;;;;;;19.80;7.30;;;;;;;12.07;68.43;102638.28;5022503;28;20033;-68
2022/05/08 02:47:18;;;;;;;20.90;7.55;;;;;;;12.06;68.12;102641.94;5016468;28;20033;-69
2022/05/08 02:49:43;;;;;;;19.60;7.57;;;;;;;12.02;67.89;102635.19;5018615;28;20025;-68
2022/05/08 02:52:08;;;;;;;18.58;7.53;;;;;;;11.99;67.74;102641.63;5022539;28;20732;-68
2022/05/08 02:54:34;;;;;;;18.15;7.57;;;;;;;11.97;67.25;102643.59;5019766;28;20082;-67
2022/05/08 02:59:43;;;;;;;20.15;7.35;;;;;;;11.94;67.45;102646.53;5021578;28;20060;-67
2022/05/08 03:02:09;;;;;;;23.13;7.57;;;;;;;11.92;67.08;102645.81;5020937;28;20049;-68
2022/05/08 03:04:35;;;;;;;14.82;6.97;;;;;;;11.88;66.89;102639.09;5015597;28;20060;-67
2022/05/08 03:07:02;;;;;;;18.40;6.68;;;;;;;11.89;67.03;102634.59;5023481;28;20029;-67
2022/05/08 03:09:28;;;;;;;19.20;6.88;;;;;;;11.90;66.88;102646.94;5021113;28;20071;-67
2022/05/08 03:11:53;;;;;;;19.48;6.53;;;;;;;11.88;66.92;102640.91;5019865;28;20034;-68
2022/05/08 03:14:20;;;;;;;19.95;6.43;;;;;;;11.88;66.95;102635.59;5024204;28;20040;-68
2022/05/08 03:16:45;;;;;;;22.85;7.07;;;;;;;11.84;66.87;102632.31;5022159;28;20048;-67
2022/05/08 03:19:11;;;;;;;23.13;7.00;;;;;;;11.82;67.06;102639.59;5025350;28;20045;-67
2022/05/08 03:21:37;;;;;;;19.92;7.20;;;;;;;11.81;66.95;102637.91;5026028;28;20017;-67
2022/05/08 03:24:03;;;;;;;22.15;7.22;;;;;;;11.79;67.09;102642.53;5024506;28;20363;-67
2022/05/08 03:26:31;;;;;;;22.60;7.32;;;;;;;11.77;66.65;102636.47;5023322;28;20024;-67
2022/05/08 03:28:56;;;;;;;27.58;7.18;;;;;;;11.75;66.90;102638.44;5026532;28;20112;-68
2022/05/08 03:31:21;;;;;;;19.70;7.22;;;;;;;11.68;66.57;102638.13;5025520;28;20112;-68
2022/05/08 03:33:47;;;;;;;22.88;7.22;;;;;;;11.68;66.57;102639.94;5024804;28;20766;-68
2022/05/08 03:36:12;;;;;;;19.65;6.80;;;;;;;11.66;66.44;102642.75;5022422;28;20103;-68
2022/05/08 03:38:45;;;;;;;23.20;7.22;;;;;;;11.62;66.37;102644.00;5026177;28;20025;-67
2022/05/08 03:41:15;;;;;;;28.27;7.00;;;;;;;11.57;66.36;102640.03;5012133;28;20018;-68
2022/05/08 03:43:41;;;;;;;22.52;6.72;;;;;;;11.61;66.35;102649.44;5025799;28;20017;-68
2022/05/08 03:46:06;;;;;;;24.25;6.80;;;;;;;11.57;66.12;102650.69;5023136;28;20021;-68
2022/05/08 03:48:34;;;;;;;26.60;7.25;;;;;;;11.53;66.12;102649.25;5025841;28;20033;-68
2022/05/08 03:51:00;;;;;;;16.95;5.78;;;;;;;11.47;66.26;102651.47;5021622;28;20028;-67
2022/05/08 03:53:26;;;;;;;26.95;6.50;;;;;;;11.43;66.44;102650.03;5024429;28;20514;-67
2022/05/08 03:55:51;;;;;;;26.30;7.43;;;;;;;11.42;66.58;102653.69;5025160;28;20021;-68
2022/05/08 03:58:17;;;;;;;26.05;6.57;;;;;;;11.36;66.52;102651.56;5017148;28;20096;-67
2022/05/08 04:00:42;;;;;;;25.02;6.70;;;;;;;11.35;66.43;102663.16;5019289;28;20100;-68
2022/05/08 04:03:07;;;;;;;29.50;6.90;;;;;;;11.37;66.34;102661.22;5031285;28;20017;-68
2022/05/08 04:05:33;;;;;;;21.67;6.60;;;;;;;11.35;66.52;102655.19;5015246;28;20030;-68
2022/05/08 04:07:58;;;;;;;28.55;6.75;;;;;;;11.40;66.55;102660.09;5024658;28;20505;-68
2022/05/08 04:10:24;;;;;;;29.63;7.32;;;;;;;11.37;66.60;102661.22;5026769;28;20532;-68
2022/05/08 04:12:49;;;;;;;23.55;6.28;;;;;;;11.37;66.63;102668.34;5028439;28;20020;-68
2022/05/08 04:17:58;;;;;;;23.73;6.28;;;;;;;11.35;66.62;102676.47;5027085;28;20048;-67
2022/05/08 04:20:25;;;;;;;28.45;6.28;;;;;;;11.27;66.81;102660.28;5028043;28;20045;-68
2022/05/08 04:25:34;;;;;;;26.60;5.88;;;;;;;11.28;66.85;102677.13;5021348;28;20048;-67
2022/05/08 04:28:00;;;;;;;30.83;6.47;;;;;;;11.22;66.66;102666.97;5029204;28;20029;-67
2022/05/08 04:30:25;;;;;;;23.75;5.72;;;;;;;11.22;66.72;102672.31;5024937;28;20045;-67
2022/05/08 04:32:50;;;;;;;31.50;6.72;;;;;;;11.18;66.78;102666.41;5029083;28;20029;-68
2022/05/08 04:35:16;;;;;;;26.40;5.45;;;;;;;11.18;67.00;102669.06;5027780;28;21627;-67
2022/05/08 04:37:41;;;;;;;27.38;5.78;;;;;;;11.15;66.89;102674.66;5021843;28;20045;-68
2022/05/08 04:40:07;;;;;;;28.88;5.50;;;;;;;11.04;67.26;102650.78;5020881;28;20542;-67
2022/05/08 04:42:33;;;;;;;21.58;5.40;;;;;;;11.13;66.96;102673.94;5022087;28;20025;-66
2022/05/08 04:44:59;;;;;;;26.50;5.43;;;;;;;11.11;67.14;102670.56;5019718;28;20040;-67
2022/05/08 04:47:25;;;;;;;26.88;5.65;;;;;;;11.09;67.11;102670.69;5023059;28;20033;-67
2022/05/08 04:49:51;;;;;;;26.08;5.18;;;;;;;11.10;67.13;102675.03;5020035;28;20033;-67
2022/05/08 04:52:17;;;;;;;23.45;4.93;;;;;;;11.02;67.22;102674.00;5021967;28;20112;-67
2022/05/08 04:54:42;;;;;;;23.70;5.05;;;;;;;11.06;67.36;102683.41;5017904;28;20254;-67
2022/05/08 04:57:07;;;;;;;26.10;5.63;;;;;;;11.04;66.96;102686.19;5020793;28;20029;-67
2022/05/08 04:59:33;;;;;;;25.88;5.70;;;;;;;11.03;67.38;102688.97;5020061;28;20494;-67
2022/05/08 05:01:58;;;;;;;26.75;5.50;;;;;;;11.03;67.32;102686.31;5027608;28;20033;-67
2022/05/08 05:04:23;;;;;;;26.02;5.28;;;;;;;11.03;67.23;102689.81;5021929;28;20029;-67
2022/05/08 05:06:49;;;;;;;23.75;5.72;;;;;;;11.06;67.58;102692.22;5022920;28;20025;-67
2022/05/08 05:09:14;;;;;;;28.77;5.68;;;;;;;10.95;67.19;102681.63;5023075;28;21048;-67
2022/05/08 05:11:39;;;;;;;23.73;5.43;;;;;;;11.04;67.17;102701.31;5025906;28;20459;-67
2022/05/08 05:14:04;;;;;;;23.77;6.05;;;;;;;11.05;67.01;102705.66;5021615;28;20553;-66
2022/05/08 05:16:30;;;;;;;23.98;5.40;;;;;;;11.01;67.28;102690.94;5023395;28;20025;-67
2022/05/08 05:18:55;;;;;;;31.02;5.38;;;;;;;11.06;66.95;102705.50;5023917;28;20033;-67
2022/05/08 05:21:20;;;;;;;30.88;5.47;;;;;;;11.08;67.13;102708.03;5022341;28;20410;-67
2022/05/08 05:23:46;;;;;;;20.05;4.72;;;;;;;11.04;66.90;102706.63;5020068;28;20040;-67
2022/05/08 05:26:11;;;;;;;25.38;5.47;;;;;;;11.05;67.09;102714.47;5019552;28;20453;-67
2022/05/08 05:28:36;;;;;;;21.10;5.43;;;;;;;11.04;67.03;102722.56;5023116;28;20040;-67
2022/05/08 05:31:02;;;;;;;30.33;5.45;;;;;;;11.02;66.92;102714.72;5022595;28;20029;-68
2022/05/08 05:33:27;;;;;;;27.27;5.22;;;;;;;11.02;66.54;102721.84;5021311;28;20040;-68
2022/05/08 05:35:52;;;;;;;22.50;5.45;;;;;;;11.02;66.92;102719.19;5018692;28;20051;-68
2022/05/08 05:38:18;;;;;;;20.50;4.85;;;;;;;10.99;66.45;102730.94;5020272;28;20025;-68
2022/05/08 05:40:43;;;;;;;22.75;4.88;;;;;;;11.00;66.47;102737.09;5025251;28;20036;-68
2022/05/08 05:43:08;;;;;;;28.30;5.40;;;;;;;11.00;66.63;102737.09;5027309;28;20030;-67
2022/05/08 05:45:34;;;;;;;28.27;5.10;;;;;;;11.05;66.52;102741.06;5027657;28;20022;-67
2022/05/08 05:48:00;;;;;;;28.23;5.78;;;;;;;11.05;66.84;102743.72;5018146;28;20033;-67
2022/05/08 05:50:26;;;;;;;29.13;5.45;;;;;;;11.04;66.70;102739.38;5028309;28;20021;-67
2022/05/08 05:52:52;;;;;;;27.23;5.38;;;;;;;11.11;66.55;102740.53;5027004;28;20048;-69
2022/05/08 05:55:19;;;;;;;25.27;4.93;;;;;;;11.10;66.41;102753.97;5023200;28;20610;-68
2022/05/08 05:57:44;;;;;;;25.00;4.95;;;;;;;11.09;66.49;102747.81;5024446;28;20056;-68
2022/05/08 06:00:15;;;;;;;28.95;4.85;;;;;;;11.07;66.03;102756.88;5026895;28;20025;-68
2022/05/08 06:02:43;;;;;;;24.25;5.20;;;;;;;11.07;65.80;102755.06;5028148;28;20457;-68
2022/05/08 06:05:10;;;;;;;25.50;5.43;;;;;;;11.07;65.67;102754.22;5024852;28;20585;-68
2022/05/08 06:07:37;;;;;;;30.52;5.30;;;;;;;11.08;66.08;102766.53;5017258;28;20053;-68
2022/05/08 06:10:06;;;;;;;24.98;5.57;;;;;;;11.10;65.84;102762.78;5026256;28;20433;-69
2022/05/08 06:12:32;;;;;;;30.00;5.18;;;;;;;11.12;65.91;102762.66;5024683;28;20048;-67
2022/05/08 06:14:57;;;;;;;22.45;4.78;;;;;;;11.24;66.30;102772.25;5023399;28;20482;-68
2022/05/08 06:17:23;;;;;;;29.15;5.38;;;;;;;11.23;65.82;102765.25;5027641;28;20027;-68
2022/05/08 06:19:48;;;;;;;27.60;4.47;;;;;;;11.21;65.42;102774.34;5021746;28;20021;-68
2022/05/08 06:22:14;;;;;;;24.85;4.80;;;;;;;11.12;65.38;102760.84;5022580;28;20038;-67
2022/05/08 06:24:39;;;;;;;26.23;5.82;;;;;;;11.26;65.75;102772.97;5024837;28;20025;-68
2022/05/08 06:27:05;;;;;;;23.63;5.65;;;;;;;11.30;65.69;102779.75;5026958;28;20029;-68
2022/05/08 06:29:31;;;;;;;30.42;5.45;;;;;;;11.28;65.15;102764.91;5026395;28;20037;-67
2022/05/08 06:31:56;;;;;;;21.88;4.85;;;;;;;11.38;65.19;102773.78;5025465;28;20434;-68
2022/05/08 06:34:22;;;;;;;32.58;5.97;;;;;;;11.40;65.30;102775.34;5025970;28;20028;-68
2022/05/08 06:36:47;;;;;;;20.42;4.75;;;;;;;11.39;65.33;102770.16;5025530;28;20558;-68
2022/05/08 06:39:15;;;;;;;26.98;5.35;;;;;;;11.53;65.14;102779.63;5027059;28;20119;-68
2022/05/08 06:41:41;;;;;;;25.97;4.60;;;;;;;11.55;65.63;102786.50;5024044;28;20056;-67
2022/05/08 06:44:07;;;;;;;24.55;5.30;;;;;;;11.62;65.17;102776.22;5021824;28;20029;-68
2022/05/08 06:46:35;;;;;;;24.65;5.30;;;;;;;11.68;65.27;102781.84;5026544;28;20028;-67
2022/05/08 06:49:02;;;;;;;24.65;5.45;;;;;;;11.72;64.92;102793.91;5024480;28;20105;-68
2022/05/08 06:51:27;;;;;;;25.10;5.18;;;;;;;11.74;64.39;102791.13;5025185;28;20627;-68
2022/05/08 06:53:52;;;;;;;24.38;5.30;;;;;;;11.81;64.27;102786.97;5024655;28;20032;-68
2022/05/08 06:56:18;;;;;;;27.98;5.15;;;;;;;11.83;63.97;102790.34;5024525;28;20630;-68
2022/05/08 07:01:38;;;;;;;23.85;4.78;;;;;;;11.87;64.01;102786.47;5026892;28;20047;-69
2022/05/08 07:04:06;;;;;;;23.35;5.03;;;;;;;11.95;63.95;102794.66;5024984;28;20026;-68
2022/05/08 07:06:31;;;;;;;27.90;5.45;;;;;;;11.97;63.81;102798.03;5026255;28;20021;-68
2022/05/08 07:08:57;;;;;;;25.50;4.93;;;;;;;11.98;63.15;102799.72;5022906;28;20036;-68
2022/05/08 07:11:23;;;;;;;28.50;5.65;;;;;;;11.99;63.20;102795.22;5019977;28;20079;-68
2022/05/08 07:13:48;;;;;;;23.15;5.60;;;;;;;11.98;63.25;102789.06;5025418;28;20033;-68
2022/05/08 07:16:13;;;;;;;20.52;4.68;;;;;;;12.01;63.08;102803.94;5025840;28;20498;-68
2022/05/08 07:18:39;;;;;;;21.60;4.47;;;;;;;12.06;63.28;102799.88;5026208;28;20116;-68
2022/05/08 07:21:05;;;;;;;25.38;5.03;;;;;;;12.07;62.91;102809.56;5025780;28;20056;-67
2022/05/08 07:23:31;;;;;;;22.27;4.97;;;;;;;11.95;62.45;102797.31;5025094;28;20025;-67
2022/05/08 07:25:57;;;;;;;24.30;4.80;;;;;;;12.03;62.56;102807.31;5023887;28;20031;-68
2022/05/08 07:28:22;;;;;;;30.17;5.53;;;;;;;11.98;62.28;102804.19;5026933;28;20100;-68
2022/05/08 07:30:49;;;;;;;30.35;5.18;;;;;;;11.95;62.23;102804.47;5024979;28;20113;-67
2022/05/08 07:33:16;;;;;;;29.88;5.28;;;;;;;12.01;63.03;102809.25;5025755;28;20060;-68
2022/05/08 07:38:30;;;;;;;29.50;5.78;;;;;;;12.08;62.60;102813.91;5022956;28;20036;-68
2022/05/08 07:40:55;;;;;;;23.05;5.10;;;;;;;12.14;62.18;102807.22;5026249;28;20423;-68
2022/05/08 07:43:21;;;;;;;24.85;5.10;;;;;;;12.21;62.01;102812.88;5028902;28;20087;-68
2022/05/08 07:45:46;;;;;;;25.63;5.53;;;;;;;12.25;61.92;102804.47;5027943;28;20029;-68
2022/05/08 07:48:12;;;;;;;23.92;4.78;;;;;;;12.34;61.80;102813.47;5028829;28;20056;-68
2022/05/08 07:50:37;;;;;;;16.63;4.32;;;;;;;12.34;61.62;102813.47;5029633;28;20505;-68
2022/05/08 07:53:03;;;;;;;18.65;4.88;;;;;;;12.34;61.58;102802.81;5028770;28;20025;-68
2022/05/08 07:55:28;;;;;;;23.90;4.90;;;;;;;12.43;61.64;102810.00;5029514;28;20091;-67
2022/05/08 07:57:53;;;;;;;24.15;4.75;;;;;;;12.50;61.28;102805.00;5029640;28;20025;-68
2022/05/08 08:00:19;;;;;;;20.35;4.97;;;;;;;12.46;60.86;102809.75;5029706;28;20029;-68
2022/05/08 08:02:45;;;;;;;25.85;5.13;;;;;;;12.51;60.83;102823.53;5029491;28;20108;-68
2022/05/08 08:05:10;;;;;;;18.23;4.60;;;;;;;12.58;60.43;102823.81;5020827;28;20609;-68
2022/05/08 08:07:36;;;;;;;22.65;5.00;;;;;;;12.61;60.57;102823.53;5026431;28;20483;-68
2022/05/08 08:10:02;;;;;;;17.38;4.38;;;;;;;12.59;60.09;102807.69;5023759;28;20040;-68
2022/05/08 08:12:28;;;;;;;16.65;4.65;;;;;;;12.71;59.82;102822.56;5028997;28;20487;-67
2022/05/08 08:14:53;;;;;;;22.10;4.90;;;;;;;12.72;59.89;102818.09;5029040;28;20032;-68
2022/05/08 08:17:19;;;;;;;24.88;4.75;;;;;;;12.76;59.02;102811.53;5023219;28;20044;-68
2022/05/08 08:19:44;;;;;;;22.50;5.40;;;;;;;12.88;59.03;102830.91;5029356;28;20035;-67
2022/05/08 08:22:09;;;;;;;18.90;5.03;;;;;;;12.99;58.99;102828.13;5029358;28;20083;-68
2022/05/08 08:24:34;;;;;;;21.75;4.68;;;;;;;12.94;59.13;102809.03;5029133;28;20387;-69
2022/05/08 08:27:01;;;;;;;21.02;4.50;;;;;;;13.03;58.49;102825.06;5029899;28;20522;-67
2022/05/08 08:29:26;;;;;;;19.48;4.30;;;;;;;13.07;57.96;102819.44;5029308;28;20017;-68
2022/05/08 08:31:51;;;;;;;19.48;4.82;;;;;;;13.15;58.09;102825.78;5029517;28;20584;-68
2022/05/08 08:34:16;;;;;;;53.53;7.75;;;;;;;13.23;57.77;102825.94;5028664;28;20095;-67
2022/05/08 08:36:42;;;;;;;108.78;14.95;;;;;;;13.30;57.66;102832.44;5028345;28;20028;-67
2022/05/08 08:39:07;;;;;;;20.30;4.40;;;;;;;13.43;57.22;102825.97;5029542;28;20029;-68
2022/05/08 08:41:35;;;;;;;22.52;4.60;;;;;;;13.49;56.45;102830.72;5026515;28;20049;-68
2022/05/08 08:49:47;;;;;;;21.73;4.43;;;;;;;13.73;56.25;102836.47;5024781;28;20402;-68
2022/05/08 08:52:13;;;;;;;20.75;3.80;;;;;;;13.81;56.38;102833.94;5028307;28;20021;-68
2022/05/08 08:54:39;;;;;;;17.10;3.88;;;;;;;13.89;55.71;102830.56;5028701;28;20024;-68
2022/05/08 08:57:04;;;;;;;63.42;8.57;;;;;;;14.00;55.34;102827.72;5028351;28;20030;-68
2022/05/08 08:59:29;;;;;;;26.58;5.07;;;;;;;14.16;55.39;102827.09;5028533;28;20106;-68
2022/05/08 09:01:55;;;;;;;19.42;4.38;;;;;;;14.33;54.91;102818.31;5028371;28;20517;-68
2022/05/08 09:04:21;;;;;;;13.25;3.72;;;;;;;14.40;54.67;102810.56;5026595;28;20037;-68
2022/05/08 09:06:46;;;;;;;20.52;3.97;;;;;;;14.60;54.09;102827.41;5026202;28;20079;-68
2022/05/08 09:09:30;;;;;;;17.35;4.10;;;;;;;14.78;53.49;102834.47;5023212;28;20140;-68
2022/05/08 09:11:56;;;;;;;20.45;3.97;;;;;;;14.98;53.09;102831.66;5025052;28;20036;-68
2022/05/08 09:14:35;;;;;;;17.60;4.13;;;;;;;15.09;52.80;102826.97;5025956;28;20457;-68
2022/05/08 09:17:03;;;;;;;16.45;3.97;;;;;;;15.15;52.41;102828.19;5028123;28;20076;-68
2022/05/08 09:19:36;;;;;;;15.95;3.80;;;;;;;15.33;51.64;102820.16;5027284;28;20072;-68
2022/05/08 09:22:03;;;;;;;14.52;3.42;;;;;;;15.41;51.39;102833.63;5029836;28;20021;-67
2022/05/08 09:24:29;;;;;;;14.13;3.40;;;;;;;15.56;50.80;102823.19;5026841;28;20068;-68
2022/05/08 09:27:15;;;;;;;16.27;3.38;;;;;;;15.74;49.88;102830.25;5028585;28;20091;-69
2022/05/08 09:29:41;;;;;;;14.88;3.45;;;;;;;15.82;49.67;102828.63;5028472;28;20061;-68
2022/05/08 09:32:07;;;;;;;13.35;3.47;;;;;;;15.97;49.13;102819.88;5026588;28;20076;-68
2022/05/08 09:34:56;;;;;;;14.85;3.35;;;;;;;16.21;49.44;102821.84;5019602;28;20036;-68
2022/05/08 09:37:22;;;;;;;17.42;3.90;;;;;;;16.31;49.36;102819.06;5023880;28;20120;-68
2022/05/08 09:39:47;;;;;;;18.00;4.03;;;;;;;16.40;49.18;102812.72;5027702;28;20041;-68
2022/05/08 09:42:34;;;;;;;12.38;3.22;;;;;;;16.57;48.95;102813.63;5026792;28;20140;-68
2022/05/08 09:45:04;;;;;;;11.73;3.13;;;;;;;16.72;48.76;102806.66;5026302;28;20022;-69
2022/05/08 09:47:49;;;;;;;13.07;3.22;;;;;;;16.80;48.40;102813.94;5021475;28;20064;-69
2022/05/08 09:50:17;;;;;;;18.23;3.80;;;;;;;16.95;47.50;102814.97;5015005;28;20030;-68
2022/05/08 09:52:44;;;;;;;15.40;3.22;;;;;;;17.13;47.82;102815.66;5027172;28;20107;-68
2022/05/08 09:55:12;;;;;;;14.30;3.20;;;;;;;17.24;47.14;102819.88;5027223;28;20025;-68
2022/05/08 09:57:39;;;;;;;16.20;3.50;;;;;;;17.19;46.59;102816.84;5027174;28;20434;-68
2022/05/08 10:00:06;;;;;;;15.63;3.70;;;;;;;17.46;46.91;102813.00;5027360;28;20060;-68
2022/05/08 10:02:31;;;;;;;17.90;3.67;;;;;;;17.63;47.21;102814.66;5021619;28;20025;-69
2022/05/08 10:04:57;;;;;;;12.57;3.40;;;;;;;17.73;46.79;102814.53;5026596;28;20032;-68
2022/05/08 10:07:23;;;;;;;13.85;3.40;;;;;;;17.65;45.73;102808.16;5020358;28;20439;-69
2022/05/08 10:15:34;;;;;;;10.90;3.20;;;;;;;17.54;45.71;102813.00;5026465;28;20556;-69
2022/05/08 10:18:22;;;;;;;12.10;3.20;;;;;;;17.68;44.67;102806.16;5022199;28;20067;-68
2022/05/08 10:21:12;;;;;;;16.80;3.47;;;;;;;17.90;44.22;102808.97;5028242;28;20230;-68
2022/05/08 10:23:40;;;;;;;19.20;4.15;;;;;;;18.12;44.37;102793.13;5026054;28;20056;-69
2022/05/08 10:26:22;;;;;;;17.10;3.70;;;;;;;18.29;44.29;102799.31;5027004;28;20558;-68
2022/05/08 10:29:03;;;;;;;11.85;3.25;;;;;;;18.38;44.77;102803.63;5027529;28;20029;-69
2022/05/08 10:31:41;;;;;;;12.50;3.30;;;;;;;18.44;44.01;102793.00;5027386;28;20104;-69
2022/05/08 10:34:08;;;;;;;17.00;3.30;;;;;;;18.60;43.50;102788.56;5026987;28;20066;-69
2022/05/08 10:36:33;;;;;;;11.95;3.15;;;;;;;18.69;43.61;102784.84;5025392;28;20021;-69
2022/05/08 10:39:35;;;;;;;11.50;3.47;;;;;;;18.85;43.09;102779.38;5027571;28;20017;-69
2022/05/08 10:42:00;;;;;;;13.30;3.60;;;;;;;18.96;42.80;102784.34;5023356;28;20037;-69
2022/05/08 10:44:40;;;;;;;15.70;3.50;;;;;;;19.13;42.08;102782.38;5026455;28;20025;-68
2022/05/08 10:47:33;;;;;;;14.52;3.25;;;;;;;19.21;42.12;102779.63;5027683;28;20036;-69
2022/05/08 10:50:12;;;;;;;10.50;2.83;;;;;;;19.32;41.92;102779.19;5020570;28;20065;-69
2022/05/08 10:52:39;;;;;;;9.63;3.22;;;;;;;19.23;41.49;102774.06;5024876;28;20030;-69
2022/05/08 10:55:08;;;;;;;13.00;3.22;;;;;;;19.38;41.24;102775.78;5026782;28;20037;-69
2022/05/08 10:57:37;;;;;;;14.20;3.47;;;;;;;19.36;41.07;102760.81;5027205;28;20024;-68
2022/05/08 11:00:04;;;;;;;11.13;3.35;;;;;;;19.23;40.85;102777.59;5023948;28;20025;-70
2022/05/08 11:02:43;;;;;;;10.15;2.90;;;;;;;19.37;40.95;102776.81;5027039;28;20505;-69
2022/05/08 11:05:13;;;;;;;;;;;;;;;19.53;40.87;102775.84;5022027;28;20056;-69
2022/05/08 11:07:39;;;;;;;10.85;3.00;;;;;;;19.57;40.80;102770.94;5027601;28;19927;-69
2022/05/08 11:10:16;;;;;;;14.27;3.22;;;;;;;19.60;40.83;102782.19;5021762;28;20599;-69
2022/05/08 11:12:54;;;;;;;9.15;2.83;;;;;;;19.61;40.28;102774.94;5024017;28;20187;-69
2022/05/08 11:15:19;;;;;;;13.63;2.97;;;;;;;19.73;40.48;102778.88;5023435;28;20685;-68
2022/05/08 11:17:45;;;;;;;11.40;3.05;;;;;;;19.71;40.35;102772.81;5025398;28;20026;-69
2022/05/08 11:20:15;;;;;;;11.38;3.13;;;;;;;19.73;39.68;102773.47;5025894;28;20029;-69
2022/05/08 11:22:55;;;;;;;17.20;3.33;;;;;;;19.84;40.92;102775.72;5026766;28;20529;-69
2022/05/08 11:25:20;;;;;;;11.55;2.90;;;;;;;19.86;39.64;102775.53;5018390;28;20620;-69
2022/05/08 11:27:58;;;;;;;10.13;2.92;;;;;;;19.88;39.29;102762.69;5023316;28;20049;-69
2022/05/08 11:30:42;;;;;;;9.75;3.03;;;;;;;19.86;39.27;102762.88;5021830;28;20080;-69
2022/05/08 11:36:10;;;;;;;16.85;3.00;;;;;;;19.96;39.17;102768.00;5027118;28;20037;-69
2022/05/08 11:38:50;;;;;;;8.15;2.60;;;;;;;19.69;38.56;102764.09;5025468;28;20511;-69
2022/05/08 11:41:18;;;;;;;8.43;2.70;;;;;;;19.67;38.75;102764.28;5026923;28;20115;-69
2022/05/08 11:43:54;;;;;;;12.00;3.10;;;;;;;19.83;38.93;102765.94;5026127;28;20025;-69
2022/05/08 11:46:32;;;;;;;13.27;3.05;;;;;;;19.93;38.36;102763.81;5026741;28;20113;-70